sensor_id;sensor_type;location;lat;lon;timestamp;P1;durP1;ratioP1;P2;durP2;ratioP2
32760;SDS011;19126;47.472;7.850;2024-01-16T00:00:37;14.98;;;7.85;;
32760;SDS011;19126;47.472;7.850;2024-01-16T00:03:05;15.82;;;7.13;;
32760;SDS011;19126;47.472;7.850;2024-01-16T00:05:32;14.75;;;7.10;;
32760;SDS011;19126;47.472;7.850;2024-01-16T00:07:59;17.23;;;7.82;;
32760;SDS011;19126;47.472;7.850;2024-01-16T00:10:26;18.70;;;7.50;;
32760;SDS011;19126;47.472;7.850;2024-01-16T00:12:54;13.93;;;6.88;;
32760;SDS011;19126;47.472;7.850;2024-01-16T00:15:22;17.83;;;7.22;;
32760;SDS011;19126;47.472;7.850;2024-01-16T00:17:57;12.38;;;6.68;;
32760;SDS011;19126;47.472;7.850;2024-01-16T00:20:33;13.52;;;7.05;;
32760;SDS011;19126;47.472;7.850;2024-01-16T00:23:11;15.73;;;7.13;;
32760;SDS011;19126;47.472;7.850;2024-01-16T00:25:41;18.50;;;7.07;;
32760;SDS011;19126;47.472;7.850;2024-01-16T00:28:20;19.20;;;8.70;;
32760;SDS011;19126;47.472;7.850;2024-01-16T00:30:49;14.35;;;6.60;;
32760;SDS011;19126;47.472;7.850;2024-01-16T00:33:16;15.15;;;7.97;;
32760;SDS011;19126;47.472;7.850;2024-01-16T00:35:43;11.70;;;6.78;;
32760;SDS011;19126;47.472;7.850;2024-01-16T00:38:11;24.38;;;7.20;;
32760;SDS011;19126;47.472;7.850;2024-01-16T00:40:38;14.68;;;7.05;;
32760;SDS011;19126;47.472;7.850;2024-01-16T00:43:05;17.50;;;7.82;;
32760;SDS011;19126;47.472;7.850;2024-01-16T00:45:33;12.82;;;6.05;;
32760;SDS011;19126;47.472;7.850;2024-01-16T00:48:03;15.50;;;6.55;;
32760;SDS011;19126;47.472;7.850;2024-01-16T00:50:31;13.95;;;6.78;;
32760;SDS011;19126;47.472;7.850;2024-01-16T00:52:58;15.05;;;7.72;;
32760;SDS011;19126;47.472;7.850;2024-01-16T00:55:26;15.40;;;7.25;;
32760;SDS011;19126;47.472;7.850;2024-01-16T00:57:53;13.60;;;6.35;;
32760;SDS011;19126;47.472;7.850;2024-01-16T01:00:20;17.50;;;7.68;;
32760;SDS011;19126;47.472;7.850;2024-01-16T01:02:47;19.23;;;7.85;;
32760;SDS011;19126;47.472;7.850;2024-01-16T01:05:16;17.08;;;6.75;;
32760;SDS011;19126;47.472;7.850;2024-01-16T01:07:44;15.05;;;6.85;;
32760;SDS011;19126;47.472;7.850;2024-01-16T01:10:11;16.00;;;7.20;;
32760;SDS011;19126;47.472;7.850;2024-01-16T01:12:38;14.63;;;6.82;;
32760;SDS011;19126;47.472;7.850;2024-01-16T01:15:06;16.35;;;8.07;;
32760;SDS011;19126;47.472;7.850;2024-01-16T01:17:35;18.40;;;7.65;;
32760;SDS011;19126;47.472;7.850;2024-01-16T01:20:03;13.07;;;6.97;;
32760;SDS011;19126;47.472;7.850;2024-01-16T01:22:32;16.55;;;7.15;;
32760;SDS011;19126;47.472;7.850;2024-01-16T01:25:00;15.98;;;7.13;;
32760;SDS011;19126;47.472;7.850;2024-01-16T01:27:27;19.42;;;6.90;;
32760;SDS011;19126;47.472;7.850;2024-01-16T01:29:54;15.70;;;7.57;;
32760;SDS011;19126;47.472;7.850;2024-01-16T01:32:22;14.60;;;7.13;;
32760;SDS011;19126;47.472;7.850;2024-01-16T01:34:49;16.33;;;7.10;;
32760;SDS011;19126;47.472;7.850;2024-01-16T01:37:16;17.45;;;8.43;;
32760;SDS011;19126;47.472;7.850;2024-01-16T01:39:45;18.17;;;8.07;;
32760;SDS011;19126;47.472;7.850;2024-01-16T01:42:12;11.10;;;6.28;;
32760;SDS011;19126;47.472;7.850;2024-01-16T01:44:41;13.38;;;6.78;;
32760;SDS011;19126;47.472;7.850;2024-01-16T01:47:08;14.20;;;5.85;;
32760;SDS011;19126;47.472;7.850;2024-01-16T01:49:36;13.65;;;6.90;;
32760;SDS011;19126;47.472;7.850;2024-01-16T01:52:04;15.13;;;6.93;;
32760;SDS011;19126;47.472;7.850;2024-01-16T01:54:32;17.00;;;7.88;;
32760;SDS011;19126;47.472;7.850;2024-01-16T01:57:05;14.00;;;6.40;;
32760;SDS011;19126;47.472;7.850;2024-01-16T01:59:33;16.27;;;6.80;;
32760;SDS011;19126;47.472;7.850;2024-01-16T02:02:01;15.48;;;6.75;;
32760;SDS011;19126;47.472;7.850;2024-01-16T02:04:30;19.77;;;8.02;;
32760;SDS011;19126;47.472;7.850;2024-01-16T02:06:59;13.93;;;6.63;;
32760;SDS011;19126;47.472;7.850;2024-01-16T02:09:26;14.10;;;6.88;;
32760;SDS011;19126;47.472;7.850;2024-01-16T02:11:54;16.85;;;7.40;;
32760;SDS011;19126;47.472;7.850;2024-01-16T02:14:22;12.50;;;6.60;;
32760;SDS011;19126;47.472;7.850;2024-01-16T02:16:49;13.93;;;6.85;;
32760;SDS011;19126;47.472;7.850;2024-01-16T02:19:17;17.40;;;7.18;;
32760;SDS011;19126;47.472;7.850;2024-01-16T02:21:46;18.35;;;7.53;;
32760;SDS011;19126;47.472;7.850;2024-01-16T02:24:16;14.57;;;7.25;;
32760;SDS011;19126;47.472;7.850;2024-01-16T02:26:45;15.40;;;7.13;;
32760;SDS011;19126;47.472;7.850;2024-01-16T02:29:14;14.95;;;6.78;;
32760;SDS011;19126;47.472;7.850;2024-01-16T02:31:42;17.25;;;7.30;;
32760;SDS011;19126;47.472;7.850;2024-01-16T02:34:09;15.15;;;7.15;;
32760;SDS011;19126;47.472;7.850;2024-01-16T02:36:36;19.15;;;7.90;;
32760;SDS011;19126;47.472;7.850;2024-01-16T02:39:03;12.55;;;6.95;;
32760;SDS011;19126;47.472;7.850;2024-01-16T02:41:33;13.82;;;7.03;;
32760;SDS011;19126;47.472;7.850;2024-01-16T02:44:00;16.60;;;7.90;;
32760;SDS011;19126;47.472;7.850;2024-01-16T02:46:27;15.73;;;7.18;;
32760;SDS011;19126;47.472;7.850;2024-01-16T02:48:55;15.40;;;7.63;;
32760;SDS011;19126;47.472;7.850;2024-01-16T02:51:22;15.93;;;7.07;;
32760;SDS011;19126;47.472;7.850;2024-01-16T02:53:49;16.65;;;7.78;;
32760;SDS011;19126;47.472;7.850;2024-01-16T02:56:16;18.60;;;7.65;;
32760;SDS011;19126;47.472;7.850;2024-01-16T02:58:45;16.95;;;7.55;;
32760;SDS011;19126;47.472;7.850;2024-01-16T03:01:13;14.68;;;7.20;;
32760;SDS011;19126;47.472;7.850;2024-01-16T03:03:41;18.77;;;7.70;;
32760;SDS011;19126;47.472;7.850;2024-01-16T03:06:09;15.10;;;7.00;;
32760;SDS011;19126;47.472;7.850;2024-01-16T03:08:36;17.08;;;8.00;;
32760;SDS011;19126;47.472;7.850;2024-01-16T03:11:04;14.45;;;6.93;;
32760;SDS011;19126;47.472;7.850;2024-01-16T03:13:32;15.07;;;6.93;;
32760;SDS011;19126;47.472;7.850;2024-01-16T03:16:01;14.68;;;7.05;;
32760;SDS011;19126;47.472;7.850;2024-01-16T03:18:32;17.23;;;7.35;;
32760;SDS011;19126;47.472;7.850;2024-01-16T03:21:00;14.57;;;7.15;;
32760;SDS011;19126;47.472;7.850;2024-01-16T03:23:28;18.85;;;6.97;;
32760;SDS011;19126;47.472;7.850;2024-01-16T03:25:55;13.77;;;6.85;;
32760;SDS011;19126;47.472;7.850;2024-01-16T03:28:23;14.48;;;6.00;;
32760;SDS011;19126;47.472;7.850;2024-01-16T03:30:50;11.98;;;6.53;;
32760;SDS011;19126;47.472;7.850;2024-01-16T03:33:20;16.65;;;7.47;;
32760;SDS011;19126;47.472;7.850;2024-01-16T03:35:47;16.75;;;7.28;;
32760;SDS011;19126;47.472;7.850;2024-01-16T03:38:15;13.40;;;6.50;;
32760;SDS011;19126;47.472;7.850;2024-01-16T03:40:42;19.33;;;7.85;;
32760;SDS011;19126;47.472;7.850;2024-01-16T03:43:09;17.85;;;7.55;;
32760;SDS011;19126;47.472;7.850;2024-01-16T03:45:37;15.05;;;8.07;;
32760;SDS011;19126;47.472;7.850;2024-01-16T03:48:04;11.82;;;7.03;;
32760;SDS011;19126;47.472;7.850;2024-01-16T03:50:33;13.90;;;7.07;;
32760;SDS011;19126;47.472;7.850;2024-01-16T03:53:01;14.57;;;7.20;;
32760;SDS011;19126;47.472;7.850;2024-01-16T03:55:29;17.25;;;7.70;;
32760;SDS011;19126;47.472;7.850;2024-01-16T03:57:56;15.25;;;7.35;;
32760;SDS011;19126;47.472;7.850;2024-01-16T04:00:23;12.95;;;6.78;;
32760;SDS011;19126;47.472;7.850;2024-01-16T04:02:59;12.90;;;6.63;;
32760;SDS011;19126;47.472;7.850;2024-01-16T04:05:45;10.98;;;6.15;;
32760;SDS011;19126;47.472;7.850;2024-01-16T04:08:26;12.18;;;7.07;;
32760;SDS011;19126;47.472;7.850;2024-01-16T04:10:53;16.45;;;7.85;;
32760;SDS011;19126;47.472;7.850;2024-01-16T04:13:24;14.10;;;6.95;;
32760;SDS011;19126;47.472;7.850;2024-01-16T04:15:51;13.95;;;7.13;;
32760;SDS011;19126;47.472;7.850;2024-01-16T04:18:19;15.13;;;6.93;;
32760;SDS011;19126;47.472;7.850;2024-01-16T04:20:47;17.15;;;7.32;;
32760;SDS011;19126;47.472;7.850;2024-01-16T04:23:16;11.60;;;6.95;;
32760;SDS011;19126;47.472;7.850;2024-01-16T04:25:43;14.13;;;6.78;;
32760;SDS011;19126;47.472;7.850;2024-01-16T04:28:10;17.48;;;7.28;;
32760;SDS011;19126;47.472;7.850;2024-01-16T04:30:38;21.38;;;7.40;;
32760;SDS011;19126;47.472;7.850;2024-01-16T04:33:05;15.48;;;7.65;;
32760;SDS011;19126;47.472;7.850;2024-01-16T04:35:35;20.00;;;7.00;;
32760;SDS011;19126;47.472;7.850;2024-01-16T04:38:04;17.23;;;7.85;;
32760;SDS011;19126;47.472;7.850;2024-01-16T04:40:32;15.70;;;7.07;;
32760;SDS011;19126;47.472;7.850;2024-01-16T04:43:19;16.33;;;7.55;;
32760;SDS011;19126;47.472;7.850;2024-01-16T04:45:46;17.63;;;7.50;;
32760;SDS011;19126;47.472;7.850;2024-01-16T04:48:13;15.93;;;7.25;;
32760;SDS011;19126;47.472;7.850;2024-01-16T04:50:41;15.32;;;6.78;;
32760;SDS011;19126;47.472;7.850;2024-01-16T04:53:09;13.70;;;7.03;;
32760;SDS011;19126;47.472;7.850;2024-01-16T04:55:37;16.30;;;7.47;;
32760;SDS011;19126;47.472;7.850;2024-01-16T04:58:05;10.18;;;6.03;;
32760;SDS011;19126;47.472;7.850;2024-01-16T05:00:32;14.55;;;6.82;;
32760;SDS011;19126;47.472;7.850;2024-01-16T05:03:00;13.68;;;6.45;;
32760;SDS011;19126;47.472;7.850;2024-01-16T05:05:30;19.60;;;8.07;;
32760;SDS011;19126;47.472;7.850;2024-01-16T05:08:00;18.73;;;7.68;;
32760;SDS011;19126;47.472;7.850;2024-01-16T05:10:29;15.23;;;7.32;;
32760;SDS011;19126;47.472;7.850;2024-01-16T05:12:57;23.58;;;7.45;;
32760;SDS011;19126;47.472;7.850;2024-01-16T05:15:27;18.80;;;8.13;;
32760;SDS011;19126;47.472;7.850;2024-01-16T05:17:54;18.35;;;8.02;;
32760;SDS011;19126;47.472;7.850;2024-01-16T05:20:21;14.10;;;6.43;;
32760;SDS011;19126;47.472;7.850;2024-01-16T05:22:49;22.27;;;8.15;;
32760;SDS011;19126;47.472;7.850;2024-01-16T05:25:16;21.08;;;8.30;;
32760;SDS011;19126;47.472;7.850;2024-01-16T05:27:46;18.13;;;7.30;;
32760;SDS011;19126;47.472;7.850;2024-01-16T05:30:14;25.00;;;8.00;;
32760;SDS011;19126;47.472;7.850;2024-01-16T05:32:42;21.70;;;7.45;;
32760;SDS011;19126;47.472;7.850;2024-01-16T05:35:09;15.85;;;7.35;;
32760;SDS011;19126;47.472;7.850;2024-01-16T05:37:37;22.00;;;9.52;;
32760;SDS011;19126;47.472;7.850;2024-01-16T05:40:04;17.13;;;7.63;;
32760;SDS011;19126;47.472;7.850;2024-01-16T05:42:33;18.30;;;7.43;;
32760;SDS011;19126;47.472;7.850;2024-01-16T05:45:03;15.10;;;7.60;;
32760;SDS011;19126;47.472;7.850;2024-01-16T05:47:31;22.85;;;8.00;;
32760;SDS011;19126;47.472;7.850;2024-01-16T05:49:58;15.25;;;7.45;;
32760;SDS011;19126;47.472;7.850;2024-01-16T05:52:25;14.27;;;6.90;;
32760;SDS011;19126;47.472;7.850;2024-01-16T05:54:53;18.10;;;7.50;;
32760;SDS011;19126;47.472;7.850;2024-01-16T05:57:22;18.25;;;8.57;;
32760;SDS011;19126;47.472;7.850;2024-01-16T05:59:53;19.05;;;8.80;;
32760;SDS011;19126;47.472;7.850;2024-01-16T06:02:23;18.08;;;8.38;;
32760;SDS011;19126;47.472;7.850;2024-01-16T06:04:51;24.23;;;9.93;;
32760;SDS011;19126;47.472;7.850;2024-01-16T06:07:22;19.52;;;9.10;;
32760;SDS011;19126;47.472;7.850;2024-01-16T06:09:50;17.05;;;8.77;;
32760;SDS011;19126;47.472;7.850;2024-01-16T06:12:17;28.10;;;11.70;;
32760;SDS011;19126;47.472;7.850;2024-01-16T06:14:49;26.75;;;11.20;;
32760;SDS011;19126;47.472;7.850;2024-01-16T06:17:16;27.63;;;10.95;;
32760;SDS011;19126;47.472;7.850;2024-01-16T06:19:45;22.65;;;9.63;;
32760;SDS011;19126;47.472;7.850;2024-01-16T06:22:13;24.02;;;10.02;;
32760;SDS011;19126;47.472;7.850;2024-01-16T06:24:40;24.23;;;10.63;;
32760;SDS011;19126;47.472;7.850;2024-01-16T06:27:07;26.45;;;8.82;;
32760;SDS011;19126;47.472;7.850;2024-01-16T06:29:34;25.17;;;9.95;;
32760;SDS011;19126;47.472;7.850;2024-01-16T06:32:02;20.10;;;10.40;;
32760;SDS011;19126;47.472;7.850;2024-01-16T06:34:29;22.73;;;9.73;;
32760;SDS011;19126;47.472;7.850;2024-01-16T06:36:58;21.60;;;9.38;;
32760;SDS011;19126;47.472;7.850;2024-01-16T06:39:25;26.30;;;10.85;;
32760;SDS011;19126;47.472;7.850;2024-01-16T06:41:52;24.83;;;9.63;;
32760;SDS011;19126;47.472;7.850;2024-01-16T06:44:20;23.17;;;10.27;;
32760;SDS011;19126;47.472;7.850;2024-01-16T06:46:47;26.33;;;11.52;;
32760;SDS011;19126;47.472;7.850;2024-01-16T06:49:14;31.75;;;11.38;;
32760;SDS011;19126;47.472;7.850;2024-01-16T06:51:41;23.00;;;10.13;;
32760;SDS011;19126;47.472;7.850;2024-01-16T06:54:12;27.23;;;10.82;;
32760;SDS011;19126;47.472;7.850;2024-01-16T06:56:40;21.88;;;10.43;;
32760;SDS011;19126;47.472;7.850;2024-01-16T06:59:07;23.50;;;9.30;;
32760;SDS011;19126;47.472;7.850;2024-01-16T07:01:34;23.17;;;9.65;;
32760;SDS011;19126;47.472;7.850;2024-01-16T07:04:02;21.92;;;9.60;;
32760;SDS011;19126;47.472;7.850;2024-01-16T07:06:29;27.80;;;10.18;;
32760;SDS011;19126;47.472;7.850;2024-01-16T07:08:56;26.77;;;10.55;;
32760;SDS011;19126;47.472;7.850;2024-01-16T07:11:25;21.50;;;10.68;;
32760;SDS011;19126;47.472;7.850;2024-01-16T07:13:52;24.75;;;10.27;;
32760;SDS011;19126;47.472;7.850;2024-01-16T07:16:19;22.13;;;10.32;;
32760;SDS011;19126;47.472;7.850;2024-01-16T07:18:47;26.27;;;10.63;;
32760;SDS011;19126;47.472;7.850;2024-01-16T07:21:20;29.75;;;11.20;;
32760;SDS011;19126;47.472;7.850;2024-01-16T07:23:48;24.52;;;11.73;;
32760;SDS011;19126;47.472;7.850;2024-01-16T07:26:15;24.40;;;11.25;;
32760;SDS011;19126;47.472;7.850;2024-01-16T07:28:44;26.95;;;11.35;;
32760;SDS011;19126;47.472;7.850;2024-01-16T07:31:13;25.38;;;11.30;;
32760;SDS011;19126;47.472;7.850;2024-01-16T07:33:41;26.75;;;11.35;;
32760;SDS011;19126;47.472;7.850;2024-01-16T07:36:09;26.48;;;11.15;;
32760;SDS011;19126;47.472;7.850;2024-01-16T07:38:37;23.75;;;10.60;;
32760;SDS011;19126;47.472;7.850;2024-01-16T07:41:05;25.35;;;11.52;;
32760;SDS011;19126;47.472;7.850;2024-01-16T07:43:33;25.88;;;10.25;;
32760;SDS011;19126;47.472;7.850;2024-01-16T07:46:02;25.52;;;10.95;;
32760;SDS011;19126;47.472;7.850;2024-01-16T07:48:29;26.60;;;10.73;;
32760;SDS011;19126;47.472;7.850;2024-01-16T07:50:56;33.13;;;12.07;;
32760;SDS011;19126;47.472;7.850;2024-01-16T07:53:24;34.33;;;12.00;;
32760;SDS011;19126;47.472;7.850;2024-01-16T07:55:52;24.48;;;11.63;;
32760;SDS011;19126;47.472;7.850;2024-01-16T07:58:21;31.75;;;12.20;;
32760;SDS011;19126;47.472;7.850;2024-01-16T08:00:48;29.20;;;12.65;;
32760;SDS011;19126;47.472;7.850;2024-01-16T08:03:17;23.92;;;11.18;;
32760;SDS011;19126;47.472;7.850;2024-01-16T08:05:44;27.85;;;12.63;;
32760;SDS011;19126;47.472;7.850;2024-01-16T08:08:11;32.70;;;15.07;;
32760;SDS011;19126;47.472;7.850;2024-01-16T08:10:40;30.58;;;14.68;;
32760;SDS011;19126;47.472;7.850;2024-01-16T08:13:08;25.30;;;13.70;;
32760;SDS011;19126;47.472;7.850;2024-01-16T08:15:37;27.05;;;13.27;;
32760;SDS011;19126;47.472;7.850;2024-01-16T08:18:05;28.27;;;12.63;;
32760;SDS011;19126;47.472;7.850;2024-01-16T08:20:33;26.42;;;11.07;;
32760;SDS011;19126;47.472;7.850;2024-01-16T08:23:01;25.73;;;11.48;;
32760;SDS011;19126;47.472;7.850;2024-01-16T08:25:39;24.55;;;11.43;;
32760;SDS011;19126;47.472;7.850;2024-01-16T08:28:11;29.73;;;12.43;;
32760;SDS011;19126;47.472;7.850;2024-01-16T08:30:42;26.53;;;11.47;;
32760;SDS011;19126;47.472;7.850;2024-01-16T08:33:10;27.10;;;12.27;;
32760;SDS011;19126;47.472;7.850;2024-01-16T08:35:39;28.70;;;11.82;;
32760;SDS011;19126;47.472;7.850;2024-01-16T08:38:07;27.60;;;12.52;;
32760;SDS011;19126;47.472;7.850;2024-01-16T08:40:34;28.83;;;12.95;;
32760;SDS011;19126;47.472;7.850;2024-01-16T08:43:01;27.00;;;12.05;;
32760;SDS011;19126;47.472;7.850;2024-01-16T08:45:29;30.80;;;13.50;;
32760;SDS011;19126;47.472;7.850;2024-01-16T08:47:57;28.35;;;13.07;;
32760;SDS011;19126;47.472;7.850;2024-01-16T08:50:24;31.00;;;14.15;;
32760;SDS011;19126;47.472;7.850;2024-01-16T08:52:53;30.02;;;13.07;;
32760;SDS011;19126;47.472;7.850;2024-01-16T08:55:20;32.65;;;14.23;;
32760;SDS011;19126;47.472;7.850;2024-01-16T08:57:48;25.05;;;12.35;;
32760;SDS011;19126;47.472;7.850;2024-01-16T09:00:18;28.65;;;13.18;;
32760;SDS011;19126;47.472;7.850;2024-01-16T09:02:46;27.58;;;13.05;;
32760;SDS011;19126;47.472;7.850;2024-01-16T09:05:13;26.25;;;12.57;;
32760;SDS011;19126;47.472;7.850;2024-01-16T09:07:41;25.05;;;13.27;;
32760;SDS011;19126;47.472;7.850;2024-01-16T09:10:10;25.10;;;12.95;;
32760;SDS011;19126;47.472;7.850;2024-01-16T09:12:38;26.38;;;12.00;;
32760;SDS011;19126;47.472;7.850;2024-01-16T09:15:06;29.58;;;11.82;;
32760;SDS011;19126;47.472;7.850;2024-01-16T09:17:34;31.58;;;12.30;;
32760;SDS011;19126;47.472;7.850;2024-01-16T09:20:01;25.33;;;11.98;;
32760;SDS011;19126;47.472;7.850;2024-01-16T09:22:29;26.60;;;12.95;;
32760;SDS011;19126;47.472;7.850;2024-01-16T09:24:57;24.48;;;12.52;;
32760;SDS011;19126;47.472;7.850;2024-01-16T09:27:25;26.92;;;11.63;;
32760;SDS011;19126;47.472;7.850;2024-01-16T09:29:52;23.02;;;12.07;;
32760;SDS011;19126;47.472;7.850;2024-01-16T09:32:20;25.27;;;12.70;;
32760;SDS011;19126;47.472;7.850;2024-01-16T09:34:47;27.45;;;11.27;;
32760;SDS011;19126;47.472;7.850;2024-01-16T09:37:15;29.20;;;12.65;;
32760;SDS011;19126;47.472;7.850;2024-01-16T09:39:42;32.80;;;13.85;;
32760;SDS011;19126;47.472;7.850;2024-01-16T09:42:09;27.75;;;12.60;;
32760;SDS011;19126;47.472;7.850;2024-01-16T09:47:09;26.38;;;11.18;;
32760;SDS011;19126;47.472;7.850;2024-01-16T09:49:37;27.00;;;11.68;;
32760;SDS011;19126;47.472;7.850;2024-01-16T09:52:05;23.08;;;11.02;;
32760;SDS011;19126;47.472;7.850;2024-01-16T09:54:32;23.02;;;9.45;;
32760;SDS011;19126;47.472;7.850;2024-01-16T09:57:00;23.30;;;11.25;;
32760;SDS011;19126;47.472;7.850;2024-01-16T09:59:32;19.60;;;11.05;;
32760;SDS011;19126;47.472;7.850;2024-01-16T10:02:05;28.98;;;11.40;;
32760;SDS011;19126;47.472;7.850;2024-01-16T10:04:36;27.00;;;12.10;;
32760;SDS011;19126;47.472;7.850;2024-01-16T10:07:04;22.42;;;10.77;;
32760;SDS011;19126;47.472;7.850;2024-01-16T10:09:32;27.33;;;13.68;;
32760;SDS011;19126;47.472;7.850;2024-01-16T10:11:59;24.00;;;10.45;;
32760;SDS011;19126;47.472;7.850;2024-01-16T10:14:28;22.50;;;11.23;;
32760;SDS011;19126;47.472;7.850;2024-01-16T10:16:56;22.80;;;10.45;;
32760;SDS011;19126;47.472;7.850;2024-01-16T10:19:27;26.83;;;11.13;;
32760;SDS011;19126;47.472;7.850;2024-01-16T10:22:00;20.95;;;11.23;;
32760;SDS011;19126;47.472;7.850;2024-01-16T10:24:29;23.35;;;10.90;;
32760;SDS011;19126;47.472;7.850;2024-01-16T10:26:59;23.05;;;10.95;;
32760;SDS011;19126;47.472;7.850;2024-01-16T10:29:28;21.67;;;10.63;;
32760;SDS011;19126;47.472;7.850;2024-01-16T10:31:56;22.40;;;10.20;;
32760;SDS011;19126;47.472;7.850;2024-01-16T10:34:23;18.67;;;10.25;;
32760;SDS011;19126;47.472;7.850;2024-01-16T10:36:58;26.98;;;11.82;;
32760;SDS011;19126;47.472;7.850;2024-01-16T10:39:26;25.10;;;12.82;;
32760;SDS011;19126;47.472;7.850;2024-01-16T10:41:56;19.70;;;10.10;;
32760;SDS011;19126;47.472;7.850;2024-01-16T10:44:24;22.37;;;10.73;;
32760;SDS011;19126;47.472;7.850;2024-01-16T10:46:52;21.33;;;10.35;;
32760;SDS011;19126;47.472;7.850;2024-01-16T10:49:37;27.98;;;10.73;;
32760;SDS011;19126;47.472;7.850;2024-01-16T10:52:04;22.38;;;10.50;;
32760;SDS011;19126;47.472;7.850;2024-01-16T10:54:37;22.55;;;10.60;;
32760;SDS011;19126;47.472;7.850;2024-01-16T10:57:10;18.02;;;9.82;;
32760;SDS011;19126;47.472;7.850;2024-01-16T10:59:39;22.20;;;10.48;;
32760;SDS011;19126;47.472;7.850;2024-01-16T11:02:17;18.38;;;10.27;;
32760;SDS011;19126;47.472;7.850;2024-01-16T11:04:49;19.30;;;10.85;;
32760;SDS011;19126;47.472;7.850;2024-01-16T11:07:19;17.65;;;9.65;;
32760;SDS011;19126;47.472;7.850;2024-01-16T11:09:47;24.85;;;11.82;;
32760;SDS011;19126;47.472;7.850;2024-01-16T11:12:16;18.38;;;9.38;;
32760;SDS011;19126;47.472;7.850;2024-01-16T11:14:47;22.23;;;10.75;;
32760;SDS011;19126;47.472;7.850;2024-01-16T11:17:18;27.38;;;10.07;;
32760;SDS011;19126;47.472;7.850;2024-01-16T11:19:50;21.88;;;10.23;;
32760;SDS011;19126;47.472;7.850;2024-01-16T11:22:17;26.30;;;10.20;;
32760;SDS011;19126;47.472;7.850;2024-01-16T11:24:45;20.60;;;10.77;;
32760;SDS011;19126;47.472;7.850;2024-01-16T11:27:37;22.42;;;11.10;;
32760;SDS011;19126;47.472;7.850;2024-01-16T11:30:05;22.40;;;10.25;;
32760;SDS011;19126;47.472;7.850;2024-01-16T11:32:35;24.83;;;11.23;;
32760;SDS011;19126;47.472;7.850;2024-01-16T11:35:06;22.25;;;11.93;;
32760;SDS011;19126;47.472;7.850;2024-01-16T11:37:35;27.30;;;11.75;;
32760;SDS011;19126;47.472;7.850;2024-01-16T11:42:58;35.88;;;15.55;;
32760;SDS011;19126;47.472;7.850;2024-01-16T11:45:49;26.23;;;11.43;;
32760;SDS011;19126;47.472;7.850;2024-01-16T11:48:17;25.63;;;11.48;;
32760;SDS011;19126;47.472;7.850;2024-01-16T11:50:47;22.88;;;12.30;;
32760;SDS011;19126;47.472;7.850;2024-01-16T11:53:33;23.17;;;10.73;;
32760;SDS011;19126;47.472;7.850;2024-01-16T11:59:38;22.98;;;11.30;;
32760;SDS011;19126;47.472;7.850;2024-01-16T12:02:34;28.17;;;13.48;;
32760;SDS011;19126;47.472;7.850;2024-01-16T12:05:22;23.02;;;12.02;;
32760;SDS011;19126;47.472;7.850;2024-01-16T12:07:51;24.80;;;12.27;;
32760;SDS011;19126;47.472;7.850;2024-01-16T12:10:20;23.00;;;11.63;;
32760;SDS011;19126;47.472;7.850;2024-01-16T12:12:49;23.85;;;11.10;;
32760;SDS011;19126;47.472;7.850;2024-01-16T12:15:17;20.77;;;11.43;;
32760;SDS011;19126;47.472;7.850;2024-01-16T12:17:55;27.73;;;11.52;;
32760;SDS011;19126;47.472;7.850;2024-01-16T12:20:24;20.17;;;10.82;;
32760;SDS011;19126;47.472;7.850;2024-01-16T12:22:58;23.63;;;10.45;;
32760;SDS011;19126;47.472;7.850;2024-01-16T12:25:27;21.33;;;11.07;;
32760;SDS011;19126;47.472;7.850;2024-01-16T12:27:56;20.73;;;11.20;;
32760;SDS011;19126;47.472;7.850;2024-01-16T12:30:25;29.75;;;11.57;;
32760;SDS011;19126;47.472;7.850;2024-01-16T12:33:02;20.55;;;10.75;;
32760;SDS011;19126;47.472;7.850;2024-01-16T12:35:36;23.75;;;11.25;;
32760;SDS011;19126;47.472;7.850;2024-01-16T12:40:34;18.48;;;10.57;;
32760;SDS011;19126;47.472;7.850;2024-01-16T12:43:03;19.27;;;10.45;;
32760;SDS011;19126;47.472;7.850;2024-01-16T12:45:31;21.60;;;10.85;;
32760;SDS011;19126;47.472;7.850;2024-01-16T12:47:59;26.98;;;11.05;;
32760;SDS011;19126;47.472;7.850;2024-01-16T12:50:29;26.70;;;11.68;;
32760;SDS011;19126;47.472;7.850;2024-01-16T12:53:01;23.33;;;10.98;;
32760;SDS011;19126;47.472;7.850;2024-01-16T12:55:31;24.15;;;10.48;;
32760;SDS011;19126;47.472;7.850;2024-01-16T12:58:13;22.10;;;11.48;;
32760;SDS011;19126;47.472;7.850;2024-01-16T13:00:41;21.23;;;11.18;;
32760;SDS011;19126;47.472;7.850;2024-01-16T13:03:14;25.95;;;11.55;;
32760;SDS011;19126;47.472;7.850;2024-01-16T13:05:43;22.80;;;11.13;;
32760;SDS011;19126;47.472;7.850;2024-01-16T13:08:17;21.50;;;10.63;;
32760;SDS011;19126;47.472;7.850;2024-01-16T13:10:47;22.13;;;11.52;;
32760;SDS011;19126;47.472;7.850;2024-01-16T13:13:33;18.88;;;10.48;;
32760;SDS011;19126;47.472;7.850;2024-01-16T13:16:01;24.15;;;10.77;;
32760;SDS011;19126;47.472;7.850;2024-01-16T13:18:31;20.05;;;11.00;;
32760;SDS011;19126;47.472;7.850;2024-01-16T13:20:59;19.98;;;11.05;;
32760;SDS011;19126;47.472;7.850;2024-01-16T13:23:29;22.88;;;11.25;;
32760;SDS011;19126;47.472;7.850;2024-01-16T13:25:58;22.27;;;10.02;;
32760;SDS011;19126;47.472;7.850;2024-01-16T13:28:25;21.95;;;10.23;;
32760;SDS011;19126;47.472;7.850;2024-01-16T13:30:54;26.42;;;12.10;;
32760;SDS011;19126;47.472;7.850;2024-01-16T13:33:22;26.35;;;11.85;;
32760;SDS011;19126;47.472;7.850;2024-01-16T13:35:52;23.27;;;12.32;;
32760;SDS011;19126;47.472;7.850;2024-01-16T13:38:20;32.03;;;12.57;;
32760;SDS011;19126;47.472;7.850;2024-01-16T13:40:48;32.05;;;14.50;;
32760;SDS011;19126;47.472;7.850;2024-01-16T13:43:17;22.63;;;11.40;;
32760;SDS011;19126;47.472;7.850;2024-01-16T13:45:44;23.95;;;11.60;;
32760;SDS011;19126;47.472;7.850;2024-01-16T13:48:14;21.45;;;11.48;;
32760;SDS011;19126;47.472;7.850;2024-01-16T13:50:42;24.30;;;11.20;;
32760;SDS011;19126;47.472;7.850;2024-01-16T13:53:10;25.25;;;11.52;;
32760;SDS011;19126;47.472;7.850;2024-01-16T13:55:39;23.85;;;11.45;;
32760;SDS011;19126;47.472;7.850;2024-01-16T13:58:07;24.45;;;11.57;;
32760;SDS011;19126;47.472;7.850;2024-01-16T14:00:37;20.73;;;10.98;;
32760;SDS011;19126;47.472;7.850;2024-01-16T14:03:05;21.20;;;10.82;;
32760;SDS011;19126;47.472;7.850;2024-01-16T14:05:33;25.48;;;11.23;;
32760;SDS011;19126;47.472;7.850;2024-01-16T14:08:01;22.92;;;10.18;;
32760;SDS011;19126;47.472;7.850;2024-01-16T14:10:29;19.65;;;10.85;;
32760;SDS011;19126;47.472;7.850;2024-01-16T14:12:56;22.60;;;10.98;;
32760;SDS011;19126;47.472;7.850;2024-01-16T14:15:23;21.20;;;10.70;;
32760;SDS011;19126;47.472;7.850;2024-01-16T14:17:52;24.63;;;11.63;;
32760;SDS011;19126;47.472;7.850;2024-01-16T14:20:21;25.13;;;10.75;;
32760;SDS011;19126;47.472;7.850;2024-01-16T14:22:52;16.90;;;9.77;;
32760;SDS011;19126;47.472;7.850;2024-01-16T14:25:21;22.70;;;10.88;;
32760;SDS011;19126;47.472;7.850;2024-01-16T14:27:55;24.73;;;9.90;;
32760;SDS011;19126;47.472;7.850;2024-01-16T14:30:24;21.70;;;10.77;;
32760;SDS011;19126;47.472;7.850;2024-01-16T14:32:54;19.27;;;10.32;;
32760;SDS011;19126;47.472;7.850;2024-01-16T14:35:22;21.65;;;11.32;;
32760;SDS011;19126;47.472;7.850;2024-01-16T14:37:50;23.02;;;11.25;;
32760;SDS011;19126;47.472;7.850;2024-01-16T14:40:17;27.77;;;11.65;;
32760;SDS011;19126;47.472;7.850;2024-01-16T14:42:50;24.40;;;11.80;;
32760;SDS011;19126;47.472;7.850;2024-01-16T14:45:18;22.92;;;11.05;;
32760;SDS011;19126;47.472;7.850;2024-01-16T14:47:47;23.83;;;11.63;;
32760;SDS011;19126;47.472;7.850;2024-01-16T14:50:17;20.13;;;10.98;;